Time;durP1;ratioP1;P1;durP2;ratioP2;P2;SDS_P1;SDS_P2;PMS_P1;PMS_P2;Temp;Humidity;BMP_temperature;BMP_pressure;BME280_temperature;BME280_humidity;BME280_pressure;Samples;Min_cycle;Max_cycle;Signal;HPM_P1;HPM_P2
2021/12/18 00:00:13;;;;;;;2.45;0.90;;;;;;;2.85;64.90;100747.39;1712895;82;21591;-57
2021/12/18 00:02:42;;;;;;;3.55;0.60;;;;;;;2.85;65.15;100746.93;1726856;80;21058;-58
2021/12/18 00:05:09;;;;;;;2.75;0.75;;;;;;;2.85;64.82;100747.39;1735922;81;21035;-58
2021/12/18 00:07:36;;;;;;;5.35;0.90;;;;;;;2.81;64.57;100748.41;1739698;80;21162;-58
2021/12/18 00:10:04;;;;;;;2.95;0.80;;;;;;;2.82;64.11;100747.05;1722386;81;21565;-58
2021/12/18 00:12:32;;;;;;;3.20;0.78;;;;;;;2.91;63.65;100760.14;1744218;81;21593;-58
2021/12/18 00:14:58;;;;;;;4.35;0.80;;;;;;;2.87;63.62;100759.86;1741504;80;21095;-58
2021/12/18 00:17:25;;;;;;;2.42;0.53;;;;;;;2.85;63.75;100761.22;1743648;80;21051;-57
2021/12/18 00:19:51;;;;;;;3.47;0.90;;;;;;;2.79;63.59;100763.64;1746154;81;21077;-58
2021/12/18 00:22:17;;;;;;;3.12;0.85;;;;;;;2.80;63.08;100760.58;1724391;82;21019;-58
2021/12/18 00:24:43;;;;;;;2.12;0.60;;;;;;;2.82;63.13;100767.84;1731601;82;21086;-58
2021/12/18 00:27:10;;;;;;;2.20;0.60;;;;;;;2.83;62.80;100772.61;1696193;82;21603;-58
2021/12/18 00:29:36;;;;;;;2.55;0.72;;;;;;;2.82;62.67;100772.20;1697824;82;21089;-57
2021/12/18 00:32:04;;;;;;;2.67;0.80;;;;;;;2.80;62.67;100772.27;1729322;80;21090;-58
2021/12/18 00:34:33;;;;;;;2.25;0.70;;;;;;;2.83;62.50;100771.31;1730040;81;21050;-57
2021/12/18 00:36:59;;;;;;;3.00;0.65;;;;;;;2.81;62.89;100776.57;1731404;82;21556;-58
2021/12/18 00:39:28;;;;;;;2.85;0.72;;;;;;;2.80;62.77;100774.87;1723819;81;21019;-58
2021/12/18 00:42:08;;;;;;;4.97;0.75;;;;;;;2.79;62.96;100789.63;1727125;80;20980;-58
2021/12/18 00:44:28;;;;;;;3.25;0.88;;;;;;;2.81;62.70;100783.06;1695090;82;21162;-57
2021/12/18 00:46:56;;;;;;;2.27;0.68;;;;;;;2.80;62.96;100794.36;1728412;82;21088;-58
2021/12/18 00:49:24;;;;;;;2.77;0.80;;;;;;;2.82;62.88;100786.50;1729121;80;21068;-58
2021/12/18 00:51:51;;;;;;;2.35;0.70;;;;;;;2.80;63.25;100789.16;1728325;82;21034;-58
2021/12/18 00:54:17;;;;;;;2.62;0.90;;;;;;;2.81;63.46;100792.16;1728040;81;21561;-58
2021/12/18 00:56:43;;;;;;;2.12;0.65;;;;;;;2.77;63.79;100792.75;1730551;80;21222;-58
2021/12/18 00:59:10;;;;;;;3.12;0.78;;;;;;;2.78;64.02;100797.48;1699402;83;21042;-58
2021/12/18 01:01:37;;;;;;;4.17;1.30;;;;;;;2.75;63.82;100790.64;1730805;82;21075;-58
2021/12/18 01:04:04;;;;;;;2.15;0.68;;;;;;;2.72;64.18;100794.69;1728596;82;21567;-58
2021/12/18 01:06:32;;;;;;;3.22;0.72;;;;;;;2.75;64.55;100798.44;1698613;82;21102;-58
2021/12/18 01:08:58;;;;;;;2.85;0.88;;;;;;;2.87;64.76;100800.16;1697990;82;21911;-58
2021/12/18 01:11:36;;;;;;;3.92;0.90;;;;;;;2.92;63.94;100793.84;1699967;83;21068;-58
2021/12/18 01:24:37;;;;;;;3.40;1.10;;;;;;;2.85;64.27;100792.41;1761908;79;21023;-58
2021/12/18 01:27:05;;;;;;;3.83;0.98;;;;;;;2.84;63.91;100793.77;1760182;80;21087;-58
2021/12/18 01:29:31;;;;;;;3.22;1.00;;;;;;;2.83;64.14;100794.70;1746110;80;21019;-58
2021/12/18 01:31:57;;;;;;;4.03;1.25;;;;;;;2.77;64.31;100799.24;1756261;80;21016;-59
2021/12/18 01:34:24;;;;;;;2.72;0.90;;;;;;;2.70;64.58;100796.95;1750963;79;21163;-59
2021/12/18 01:36:51;;;;;;;2.83;0.80;;;;;;;2.69;64.45;100797.41;1736928;80;21035;-58
2021/12/18 01:39:19;;;;;;;3.77;1.07;;;;;;;2.77;63.87;100801.84;1761117;79;21035;-59
2021/12/18 01:42:11;;;;;;;3.00;1.17;;;;;;;2.71;63.79;100797.34;1733215;80;21108;-59
2021/12/18 01:51:14;;;;;;;2.58;0.70;;;;;;;2.62;64.64;100788.61;1753759;80;22822;-59
2021/12/18 01:52:23;;;;;;;2.90;0.82;;;;;;;2.63;64.29;100811.10;1759491;80;21124;-59
2021/12/18 01:54:46;;;;;;;3.80;0.85;;;;;;;2.57;64.15;100812.17;1751638;80;21060;-59
2021/12/18 01:57:12;;;;;;;2.58;0.70;;;;;;;2.55;64.44;100810.93;1746656;79;21042;-59
2021/12/18 01:59:45;;;;;;;2.85;0.90;;;;;;;2.63;64.47;100808.50;1764411;80;22027;-58
2021/12/18 02:02:12;;;;;;;4.22;1.15;;;;;;;2.65;64.08;100808.81;1740793;81;21012;-59
2021/12/18 02:04:38;;;;;;;3.35;0.93;;;;;;;2.62;63.93;100811.53;1749729;80;21082;-59
2021/12/18 02:07:04;;;;;;;4.15;0.90;;;;;;;2.58;64.47;100809.98;1740006;80;21025;-59
2021/12/18 02:12:17;;;;;;;2.27;0.60;;;;;;;2.53;64.58;100810.16;1753839;79;21055;-59
2021/12/18 02:20:37;;;;;;;3.85;1.22;;;;;;;2.50;64.95;100817.23;1756561;80;21103;-58
2021/12/18 02:22:56;;;;;;;3.25;0.80;;;;;;;2.43;64.96;100819.22;1759169;79;21056;-58
2021/12/18 02:25:24;;;;;;;2.80;0.93;;;;;;;2.44;65.29;100820.05;1767769;79;21089;-58
2021/12/18 02:27:52;;;;;;;6.17;0.98;;;;;;;2.39;65.54;100822.39;1767391;79;21537;-58
2021/12/18 02:30:23;;;;;;;2.98;0.88;;;;;;;2.40;65.68;100829.29;1747477;80;21092;-58
2021/12/18 02:32:50;;;;;;;3.12;0.85;;;;;;;2.49;65.66;100836.30;1768856;79;21038;-58
2021/12/18 02:35:30;;;;;;;4.28;0.90;;;;;;;2.47;65.34;100832.92;1739303;80;21535;-58
2021/12/18 02:38:21;;;;;;;2.87;0.70;;;;;;;2.43;65.11;100824.88;1768082;79;21136;-58
2021/12/18 02:43:34;;;;;;;2.55;0.72;;;;;;;2.43;64.63;100833.50;1768947;79;21071;-59
2021/12/18 02:46:06;;;;;;;3.17;0.95;;;;;;;2.41;64.96;100833.56;1736222;79;21997;-58
2021/12/18 02:48:37;;;;;;;2.15;0.50;;;;;;;2.37;64.52;100832.00;1766861;79;20994;-58
2021/12/18 02:51:05;;;;;;;2.40;0.60;;;;;;;2.37;64.43;100842.39;1765680;79;21231;-58
2021/12/18 02:53:33;;;;;;;2.50;0.70;;;;;;;2.36;64.51;100836.79;1767312;79;21620;-59
2021/12/18 02:56:04;;;;;;;3.20;0.60;;;;;;;2.34;63.75;100841.20;1741979;80;21018;-58
2021/12/18 02:58:41;;;;;;;2.72;0.72;;;;;;;2.37;63.84;100851.48;1761823;80;21015;-58
2021/12/18 03:01:10;;;;;;;3.65;0.72;;;;;;;2.38;64.07;100847.96;1768642;80;21102;-58
2021/12/18 03:03:37;;;;;;;3.00;0.50;;;;;;;2.34;63.50;100836.48;1738782;79;21055;-58
2021/12/18 03:06:56;;;;;;;2.75;0.70;;;;;;;2.34;63.01;100843.80;1769069;80;21106;-58
2021/12/18 03:08:55;;;;;;;2.40;0.55;;;;;;;2.37;63.20;100854.08;1727341;79;21035;-58
2021/12/18 03:27:18;;;;;;;2.22;0.78;;;;;;;2.29;62.83;100876.05;1762448;80;21614;-58
2021/12/18 03:29:45;;;;;;;2.75;0.42;;;;;;;2.27;61.60;100868.32;1746420;79;21046;-57
2021/12/18 03:32:11;;;;;;;2.98;0.60;;;;;;;2.32;61.18;100890.20;1769546;79;21817;-57
2021/12/18 03:34:38;;;;;;;1.82;0.60;;;;;;;2.33;61.00;100897.94;1754027;79;21045;-57
2021/12/18 03:37:05;;;;;;;1.90;0.60;;;;;;;2.34;60.84;100891.84;1766567;80;21547;-58
2021/12/18 03:39:31;;;;;;;1.85;0.60;;;;;;;2.36;60.31;100892.62;1759209;80;21543;-58
2021/12/18 03:41:58;;;;;;;2.08;0.60;;;;;;;2.37;59.76;100900.83;1753779;79;21575;-58
2021/12/18 03:44:25;;;;;;;2.42;0.68;;;;;;;2.33;60.03;100894.04;1753255;79;21054;-58
2021/12/18 03:46:52;;;;;;;2.45;0.60;;;;;;;2.35;59.83;100903.91;1742060;80;21023;-58
2021/12/18 03:49:19;;;;;;;2.80;0.98;;;;;;;2.35;60.41;100904.38;1754424;80;21035;-58
2021/12/18 03:51:45;;;;;;;3.08;0.65;;;;;;;2.36;59.84;100908.21;1753794;79;22278;-58
2021/12/18 03:54:13;;;;;;;2.20;0.53;;;;;;;2.37;60.71;100911.22;1752272;79;21440;-57
2021/12/18 03:56:39;;;;;;;1.98;0.57;;;;;;;2.41;62.11;100917.98;1766747;79;20999;-58
2021/12/18 03:59:06;;;;;;;1.98;0.70;;;;;;;2.39;62.81;100918.49;1743080;80;21840;-58
2021/12/18 04:01:33;;;;;;;3.37;0.82;;;;;;;2.36;62.90;100913.87;1741446;80;21058;-58
2021/12/18 04:03:59;;;;;;;2.37;0.78;;;;;;;2.30;62.87;100916.22;1776378;79;21502;-58
2021/12/18 04:06:26;;;;;;;2.42;0.60;;;;;;;2.27;63.97;100929.34;1743181;80;21259;-58
2021/12/18 04:08:52;;;;;;;1.92;0.55;;;;;;;2.21;65.25;100932.99;1757451;80;21542;-58
2021/12/18 04:11:20;;;;;;;6.00;0.75;;;;;;;2.17;65.67;100936.62;1766509;79;21041;-58
2021/12/18 04:13:48;;;;;;;2.37;0.78;;;;;;;2.21;65.64;100934.75;1768943;79;21055;-59
2021/12/18 04:16:14;;;;;;;3.12;0.80;;;;;;;2.17;65.83;100944.41;1762845;79;21042;-58
2021/12/18 04:18:41;;;;;;;6.47;0.70;;;;;;;2.13;65.79;100937.61;1761683;80;21199;-58
2021/12/18 04:21:08;;;;;;;3.00;0.85;;;;;;;2.09;65.92;100935.20;1764490;80;21460;-58
2021/12/18 04:23:34;;;;;;;3.58;0.98;;;;;;;2.12;65.40;100934.64;1761361;79;21098;-58
2021/12/18 04:26:01;;;;;;;3.42;0.85;;;;;;;2.13;64.14;100935.48;1738680;80;21072;-57
2021/12/18 04:28:28;;;;;;;3.92;1.00;;;;;;;2.11;63.46;100943.32;1764197;79;21054;-58
2021/12/18 04:30:55;;;;;;;3.33;1.00;;;;;;;2.10;63.86;100952.45;1756753;79;21788;-58
2021/12/18 04:33:22;;;;;;;3.33;0.98;;;;;;;2.10;64.18;100951.16;1763949;80;21019;-58
2021/12/18 04:35:49;;;;;;;3.72;1.00;;;;;;;2.09;63.60;100941.70;1761909;80;21023;-58
2021/12/18 04:38:15;;;;;;;2.87;0.62;;;;;;;2.08;62.50;100941.28;1731887;80;21091;-58
2021/12/18 04:40:43;;;;;;;1.90;0.75;;;;;;;2.07;63.57;100938.28;1761904;79;21538;-58
2021/12/18 04:43:10;;;;;;;2.80;0.85;;;;;;;2.08;64.15;100940.83;1736377;80;22512;-58
2021/12/18 04:45:37;;;;;;;3.20;0.90;;;;;;;2.14;64.64;100950.17;1758840;79;21426;-57
2021/12/18 04:48:04;;;;;;;3.10;0.80;;;;;;;2.10;65.20;100944.67;1762543;80;20975;-58
2021/12/18 04:50:30;;;;;;;3.02;0.80;;;;;;;2.12;65.36;100947.62;1763469;79;21705;-58
2021/12/18 04:52:57;;;;;;;2.75;0.80;;;;;;;2.10;65.58;100952.03;1763743;80;21050;-58
2021/12/18 04:55:24;;;;;;;2.40;0.72;;;;;;;2.10;65.36;100953.33;1762235;80;21740;-58
2021/12/18 04:57:52;;;;;;;3.37;0.68;;;;;;;2.05;65.42;100953.91;1730949;79;21047;-58
2021/12/18 05:00:20;;;;;;;2.45;0.82;;;;;;;2.00;63.54;100946.31;1743160;80;21057;-57
2021/12/18 05:02:49;;;;;;;2.08;0.70;;;;;;;2.01;63.17;100947.15;1760075;79;21049;-58
2021/12/18 05:05:15;;;;;;;1.00;0.30;;;;;;;2.01;62.92;100953.17;1760503;79;21113;-58
2021/12/18 05:07:42;;;;;;;1.90;0.50;;;;;;;1.96;61.89;100958.98;1760594;79;21137;-59
2021/12/18 05:10:09;;;;;;;2.87;0.53;;;;;;;1.97;61.12;100968.94;1761933;79;21097;-58
2021/12/18 05:12:37;;;;;;;2.02;0.50;;;;;;;2.01;60.55;100971.81;1760570;79;21157;-59
2021/12/18 05:15:05;;;;;;;1.52;0.50;;;;;;;2.00;60.37;100972.70;1763471;79;21397;-60
2021/12/18 05:17:32;;;;;;;1.45;0.50;;;;;;;2.04;60.32;100975.59;1738357;80;21097;-58
2021/12/18 05:19:59;;;;;;;1.80;0.40;;;;;;;2.04;60.79;100984.69;1758918;79;21105;-59
2021/12/18 05:22:25;;;;;;;1.80;0.40;;;;;;;2.06;60.17;100975.55;1763764;80;21090;-59
2021/12/18 05:24:52;;;;;;;1.98;0.60;;;;;;;2.09;60.08;100975.45;1740849;80;21102;-59
2021/12/18 05:27:18;;;;;;;2.45;0.65;;;;;;;2.09;59.90;100981.48;1740550;80;22443;-59
2021/12/18 05:29:44;;;;;;;2.40;0.55;;;;;;;2.11;60.27;100990.52;1748390;80;21070;-59
2021/12/18 05:32:11;;;;;;;1.77;0.53;;;;;;;2.13;60.31;100986.11;1742830;80;21149;-59
2021/12/18 05:34:38;;;;;;;6.65;0.80;;;;;;;2.16;59.81;100995.09;1730146;80;21121;-58
2021/12/18 05:37:20;;;;;;;1.55;0.45;;;;;;;2.14;59.35;100995.14;1731188;80;21595;-58
2021/12/18 05:39:47;;;;;;;1.87;0.50;;;;;;;2.12;59.09;101004.73;1736723;80;21429;-58
2021/12/18 05:42:15;;;;;;;2.47;0.60;;;;;;;2.11;58.51;101010.81;1750891;80;21094;-59
2021/12/18 05:44:41;;;;;;;2.77;0.57;;;;;;;2.10;58.03;101016.06;1750850;79;21615;-59
2021/12/18 05:47:07;;;;;;;1.15;0.23;;;;;;;2.08;58.19;101016.57;1757915;80;20992;-59
2021/12/18 05:49:34;;;;;;;2.90;0.45;;;;;;;2.04;57.47;101010.19;1756147;80;21113;-59
2021/12/18 05:52:01;;;;;;;2.22;0.60;;;;;;;1.99;57.68;101021.64;1757386;80;21043;-59
2021/12/18 05:54:27;;;;;;;0.47;0.17;;;;;;;1.99;58.25;101017.28;1753851;79;20983;-58
2021/12/18 05:56:54;;;;;;;1.00;0.40;;;;;;;1.99;57.86;101030.72;1757431;80;21167;-58
2021/12/18 05:59:21;;;;;;;1.42;0.28;;;;;;;1.97;58.06;101026.04;1749135;79;21027;-59
2021/12/18 06:01:48;;;;;;;4.87;0.40;;;;;;;1.95;58.54;101042.09;1752265;79;21035;-58
2021/12/18 06:04:14;;;;;;;1.55;0.40;;;;;;;1.92;58.58;101033.14;1754982;80;20999;-58
2021/12/18 06:06:41;;;;;;;1.12;0.25;;;;;;;1.90;58.75;101031.89;1756471;80;21523;-58
2021/12/18 06:09:09;;;;;;;1.52;0.40;;;;;;;1.93;59.12;101043.44;1748511;79;21159;-58
2021/12/18 06:11:38;;;;;;;0.78;0.30;;;;;;;1.92;59.03;101036.56;1749507;79;21062;-58
2021/12/18 06:14:05;;;;;;;1.62;0.57;;;;;;;1.95;59.02;101039.06;1755096;80;21074;-59
2021/12/18 06:16:31;;;;;;;1.35;0.40;;;;;;;1.92;59.14;101050.84;1755399;80;21845;-59
2021/12/18 06:18:57;;;;;;;1.65;0.50;;;;;;;1.91;59.59;101047.84;1743317;80;21112;-59
2021/12/18 06:21:24;;;;;;;2.20;0.50;;;;;;;1.93;59.70;101051.22;1758408;80;23358;-58
2021/12/18 06:23:52;;;;;;;1.45;0.30;;;;;;;1.92;59.67;101054.73;1758038;80;20995;-58
2021/12/18 06:26:19;;;;;;;1.82;0.50;;;;;;;1.95;59.63;101061.13;1756339;80;21004;-58
2021/12/18 06:28:45;;;;;;;1.80;0.50;;;;;;;1.95;59.54;101060.26;1746160;80;21048;-58
2021/12/18 06:31:12;;;;;;;2.30;0.60;;;;;;;1.97;59.82;101056.73;1740640;80;20982;-58
2021/12/18 06:33:38;;;;;;;2.22;0.68;;;;;;;1.98;59.71;101066.19;1752002;80;21469;-59
2021/12/18 06:36:05;;;;;;;4.00;0.85;;;;;;;1.99;59.92;101056.22;1736554;80;21010;-58
2021/12/18 06:38:31;;;;;;;2.62;0.70;;;;;;;2.00;60.12;101059.23;1720238;81;20995;-58
2021/12/18 06:40:58;;;;;;;3.10;0.72;;;;;;;2.07;60.15;101056.41;1738819;80;21220;-58
2021/12/18 06:43:24;;;;;;;2.77;0.85;;;;;;;2.09;60.15;101055.47;1734672;80;21658;-59
2021/12/18 06:45:51;;;;;;;2.83;0.80;;;;;;;2.14;60.19;101052.72;1753658;79;21107;-57
2021/12/18 06:48:17;;;;;;;3.20;0.78;;;;;;;2.17;60.33;101053.89;1735213;81;21074;-57
2021/12/18 06:50:43;;;;;;;3.02;0.88;;;;;;;2.23;60.33;101057.58;1747374;80;21122;-57
2021/12/18 06:53:10;;;;;;;3.77;1.40;;;;;;;2.22;60.14;101063.23;1757444;80;21552;-58
2021/12/18 06:55:36;;;;;;;2.22;0.78;;;;;;;2.23;61.50;101062.31;1756493;79;21042;-58
2021/12/18 06:58:02;;;;;;;4.28;0.98;;;;;;;2.18;64.63;101060.33;1769687;79;21147;-58
2021/12/18 07:00:29;;;;;;;5.62;0.78;;;;;;;2.10;64.73;101070.16;1754140;80;21078;-59
2021/12/18 07:02:55;;;;;;;3.15;0.93;;;;;;;2.02;64.96;101074.75;1742674;80;20964;-58
2021/12/18 07:05:22;;;;;;;4.53;1.20;;;;;;;1.97;65.27;101071.00;1759617;80;21021;-58
2021/12/18 07:07:50;;;;;;;3.33;1.12;;;;;;;1.91;66.04;101076.84;1771861;79;21004;-58
2021/12/18 07:10:16;;;;;;;4.17;1.47;;;;;;;1.88;66.10;101078.23;1763049;80;21124;-59
2021/12/18 07:12:43;;;;;;;3.77;1.07;;;;;;;1.88;66.12;101076.48;1761037;80;21493;-58
2021/12/18 07:15:10;;;;;;;4.62;1.55;;;;;;;1.90;65.84;101079.03;1752469;79;21054;-58
2021/12/18 07:17:38;;;;;;;4.58;1.50;;;;;;;1.83;64.96;101078.38;1757446;80;21075;-59
2021/12/18 07:20:06;;;;;;;3.90;1.07;;;;;;;1.80;64.98;101079.34;1753449;79;20979;-59
2021/12/18 07:22:32;;;;;;;3.47;0.88;;;;;;;1.79;64.17;101069.02;1760599;79;21103;-59
2021/12/18 07:24:58;;;;;;;2.77;0.78;;;;;;;1.77;64.24;101069.06;1742355;80;22167;-59
2021/12/18 07:27:25;;;;;;;3.95;1.00;;;;;;;1.78;63.03;101073.79;1755186;80;21078;-59
2021/12/18 07:29:52;;;;;;;2.70;0.70;;;;;;;1.79;63.43;101076.80;1757708;80;21332;-59
2021/12/18 07:32:19;;;;;;;2.27;0.78;;;;;;;1.81;62.83;101069.80;1755716;80;21431;-58
2021/12/18 07:34:45;;;;;;;2.70;0.80;;;;;;;1.81;62.66;101077.59;1758992;79;21165;-58
2021/12/18 07:37:13;;;;;;;2.90;0.82;;;;;;;1.83;62.43;101083.14;1763467;79;21023;-58
2021/12/18 07:39:39;;;;;;;2.52;0.80;;;;;;;1.87;62.31;101090.38;1760927;80;21038;-59
2021/12/18 07:42:07;;;;;;;4.10;1.20;;;;;;;1.88;61.28;101092.05;1739284;80;21811;-60
2021/12/18 07:44:33;;;;;;;4.00;1.05;;;;;;;1.88;61.01;101084.73;1757144;80;21077;-59
2021/12/18 07:46:59;;;;;;;3.95;1.25;;;;;;;1.91;61.01;101100.20;1754962;80;22306;-59
2021/12/18 07:49:26;;;;;;;3.02;0.95;;;;;;;1.93;61.43;101101.83;1755885;80;21058;-58
2021/12/18 07:51:59;;;;;;;4.90;1.07;;;;;;;1.90;60.84;101095.47;1729979;80;21065;-59
2021/12/18 07:54:21;;;;;;;4.37;1.15;;;;;;;1.85;60.60;101093.02;1755218;80;21574;-59
2021/12/18 07:56:47;;;;;;;3.58;1.30;;;;;;;1.82;60.76;101100.06;1738598;79;21046;-58
2021/12/18 07:59:15;;;;;;;4.03;0.75;;;;;;;1.83;61.37;101093.95;1748931;80;21955;-59
2021/12/18 08:01:41;;;;;;;3.67;1.32;;;;;;;1.83;60.97;101095.25;1738180;80;20991;-58
2021/12/18 08:04:09;;;;;;;3.58;0.90;;;;;;;1.85;61.04;101107.75;1750279;80;21071;-59
2021/12/18 08:06:36;;;;;;;1.92;0.60;;;;;;;1.85;61.28;101106.45;1768826;80;21043;-59
2021/12/18 08:09:02;;;;;;;2.77;0.82;;;;;;;1.86;60.80;101108.13;1728610;80;21003;-59
2021/12/18 08:11:31;;;;;;;3.72;1.05;;;;;;;1.83;61.00;101116.01;1749742;79;21176;-59
2021/12/18 08:13:57;;;;;;;3.37;1.17;;;;;;;1.80;60.96;101122.16;1724290;80;21030;-59
2021/12/18 08:16:23;;;;;;;4.12;1.10;;;;;;;1.77;61.05;101122.72;1758077;80;21003;-58
2021/12/18 08:18:51;;;;;;;11.22;5.17;;;;;;;1.79;61.73;101124.80;1759409;79;21102;-58
2021/12/18 08:21:17;;;;;;;24.30;13.38;;;;;;;1.84;63.07;101130.70;1759006;79;21540;-58
2021/12/18 08:23:44;;;;;;;24.67;12.25;;;;;;;1.90;63.47;101127.91;1753849;80;21167;-58
2021/12/18 08:26:10;;;;;;;14.18;8.18;;;;;;;1.94;63.97;101125.61;1761327;79;21046;-58
2021/12/18 08:28:36;;;;;;;5.70;1.92;;;;;;;2.00;64.08;101124.13;1747746;80;20996;-58
2021/12/18 08:31:03;;;;;;;5.87;2.45;;;;;;;2.02;63.78;101122.31;1735827;80;21567;-58
2021/12/18 08:33:30;;;;;;;5.83;1.40;;;;;;;2.03;63.88;101117.53;1748845;80;21058;-59
2021/12/18 08:35:56;;;;;;;5.53;2.47;;;;;;;2.04;64.03;101111.42;1733964;80;21982;-58
2021/12/18 08:38:22;;;;;;;4.87;1.82;;;;;;;2.05;64.25;101104.48;1757718;80;21031;-59
2021/12/18 08:40:50;;;;;;;5.30;2.20;;;;;;;2.04;64.34;101106.23;1739716;80;21051;-59
2021/12/18 08:43:16;;;;;;;8.98;2.92;;;;;;;2.17;64.41;101101.92;1750071;79;21048;-61
2021/12/18 08:45:43;;;;;;;6.85;3.55;;;;;;;2.27;64.15;101095.97;1749774;80;21053;-59
2021/12/18 08:48:10;;;;;;;5.95;2.90;;;;;;;2.27;64.20;101094.25;1756432;79;23290;-59
2021/12/18 08:50:36;;;;;;;6.47;2.15;;;;;;;2.27;64.15;101091.65;1749308;79;21113;-58
2021/12/18 08:53:02;;;;;;;5.85;2.30;;;;;;;2.26;64.06;101091.70;1750071;80;21074;-58
2021/12/18 08:55:29;;;;;;;5.50;2.17;;;;;;;2.25;64.30;101088.69;1756159;79;21083;-58
2021/12/18 08:57:55;;;;;;;6.50;2.00;;;;;;;2.29;64.22;101089.84;1742260;80;21061;-58
2021/12/18 09:00:23;;;;;;;5.55;1.85;;;;;;;2.31;64.45;101096.28;1761202;79;21983;-58
2021/12/18 09:02:52;;;;;;;7.20;2.55;;;;;;;2.33;64.09;101088.82;1752474;80;21559;-58
2021/12/18 09:05:19;;;;;;;4.75;1.60;;;;;;;2.30;64.20;101094.11;1737590;80;21063;-58
2021/12/18 09:07:47;;;;;;;4.28;1.42;;;;;;;2.29;64.33;101099.39;1757494;80;21094;-58
2021/12/18 09:10:14;;;;;;;6.05;1.98;;;;;;;2.30;64.47;101095.41;1721958;82;21075;-59
2021/12/18 09:12:42;;;;;;;5.70;1.75;;;;;;;2.37;64.10;101098.22;1745694;80;21113;-58
2021/12/18 09:15:11;;;;;;;5.15;1.40;;;;;;;2.38;64.05;101096.47;1754149;79;20989;-58
2021/12/18 09:17:37;;;;;;;3.77;1.12;;;;;;;2.44;64.00;101092.36;1754506;79;21741;-59
2021/12/18 09:20:06;;;;;;;5.08;1.60;;;;;;;2.54;64.01;101095.03;1759385;79;21089;-59
2021/12/18 09:22:34;;;;;;;9.38;4.75;;;;;;;2.60;64.26;101099.16;1755551;79;21068;-58
2021/12/18 09:25:03;;;;;;;6.22;2.45;;;;;;;2.57;65.04;101091.47;1755645;80;21112;-59
2021/12/18 09:27:31;;;;;;;5.30;1.95;;;;;;;2.52;65.67;101090.78;1754981;79;21059;-58
2021/12/18 09:29:58;;;;;;;5.42;1.50;;;;;;;2.44;65.78;101086.30;1754836;80;21043;-59
2021/12/18 09:32:24;;;;;;;7.95;1.98;;;;;;;2.41;65.81;101089.87;1736190;80;22014;-58
2021/12/18 09:34:51;;;;;;;3.77;1.32;;;;;;;2.45;65.71;101086.70;1758605;79;21078;-58
2021/12/18 09:39:47;;;;;;;4.45;1.65;;;;;;;2.47;65.62;101079.70;1795783;78;22723;-59
2021/12/18 09:42:13;;;;;;;4.83;1.95;;;;;;;2.39;65.46;101080.83;1761188;79;21443;-59
2021/12/18 09:44:39;;;;;;;4.87;2.05;;;;;;;2.39;65.01;101078.23;1753582;79;21153;-59
2021/12/18 09:47:07;;;;;;;5.45;1.60;;;;;;;2.37;64.67;101082.64;1713454;82;20991;-59
2021/12/18 09:49:33;;;;;;;5.05;2.20;;;;;;;2.35;64.88;101082.28;1715322;82;21384;-59
2021/12/18 09:52:01;;;;;;;5.17;2.20;;;;;;;2.32;64.96;101081.95;1734771;81;21088;-58
2021/12/18 09:54:27;;;;;;;5.95;2.02;;;;;;;2.32;64.90;101084.55;1739620;81;20989;-58
2021/12/18 09:56:55;;;;;;;10.58;6.72;;;;;;;2.31;65.04;101070.31;1712146;80;21256;-58
2021/12/18 09:59:23;;;;;;;10.60;6.78;;;;;;;2.29;65.04;101075.56;1711041;82;20963;-57
2021/12/18 10:01:50;;;;;;;7.28;4.58;;;;;;;2.27;65.24;101070.87;1720499;82;21071;-58
2021/12/18 10:04:35;;;;;;;9.50;5.05;;;;;;;2.29;65.49;101067.77;1721294;82;21153;-59
2021/12/18 10:07:23;;;;;;;7.05;2.98;;;;;;;2.43;65.23;101069.88;1721225;82;21050;-57
2021/12/18 10:09:57;;;;;;;5.20;2.25;;;;;;;2.55;64.83;101065.99;1685918;82;21058;-57
2021/12/18 10:12:26;;;;;;;9.03;3.15;;;;;;;2.55;64.66;101056.91;1715502;82;21054;-58
2021/12/18 10:14:59;;;;;;;7.47;2.77;;;;;;;2.50;64.67;101050.56;1687719;82;21809;-58
2021/12/18 10:17:35;;;;;;;7.37;2.90;;;;;;;2.45;64.71;101051.64;1715345;82;21551;-58
2021/12/18 10:20:16;;;;;;;6.50;2.70;;;;;;;2.33;65.03;101055.06;1717462;82;21072;-57
2021/12/18 10:22:49;;;;;;;6.45;3.05;;;;;;;2.24;65.45;101046.30;1710046;82;21070;-58
2021/12/18 10:25:25;;;;;;;6.30;2.60;;;;;;;2.20;65.94;101045.57;1693889;82;21051;-58
2021/12/18 10:28:13;;;;;;;6.33;2.45;;;;;;;2.19;65.98;101041.72;1691957;82;21177;-58
2021/12/18 10:30:48;;;;;;;6.35;2.75;;;;;;;2.28;65.82;101046.58;1687280;82;21126;-57
2021/12/18 10:33:14;;;;;;;5.35;2.65;;;;;;;2.31;65.86;101037.39;1715346;82;21035;-57
2021/12/18 10:35:57;;;;;;;5.42;2.65;;;;;;;2.31;65.90;101027.47;1714196;82;21167;-57
2021/12/18 10:38:49;;;;;;;6.62;2.95;;;;;;;2.31;66.13;101026.16;1676628;84;21059;-58
2021/12/18 10:41:31;;;;;;;6.35;2.62;;;;;;;2.36;66.23;101032.04;1706862;82;21571;-57
2021/12/18 10:44:12;;;;;;;6.28;2.30;;;;;;;2.33;66.52;101021.30;1705407;82;21090;-57
2021/12/18 10:46:45;;;;;;;6.25;2.22;;;;;;;2.30;66.45;101020.09;1767410;80;21023;-57
2021/12/18 10:49:18;;;;;;;4.65;2.10;;;;;;;2.34;65.81;101019.56;1762354;80;21184;-57
2021/12/18 10:51:45;;;;;;;4.62;1.37;;;;;;;2.29;65.96;101013.69;1742835;80;21106;-58
2021/12/18 10:54:16;;;;;;;5.20;2.40;;;;;;;2.21;65.92;101016.55;1765774;79;21008;-59
2021/12/18 10:56:52;;;;;;;5.40;2.20;;;;;;;2.17;65.95;101024.89;1774022;80;21011;-59
2021/12/18 10:59:31;;;;;;;6.20;2.47;;;;;;;2.20;66.00;101015.70;1763961;80;21066;-58
2021/12/18 11:02:00;;;;;;;5.03;2.15;;;;;;;2.33;65.61;101014.80;1765429;80;21536;-59
2021/12/18 11:04:30;;;;;;;6.30;2.50;;;;;;;2.39;65.50;101015.05;1770648;79;21660;-59
2021/12/18 11:06:56;;;;;;;5.58;2.33;;;;;;;2.44;65.17;101012.27;1738888;80;21070;-58
2021/12/18 11:09:30;;;;;;;7.95;2.50;;;;;;;2.46;64.50;101011.33;1763232;80;21118;-58
2021/12/18 11:14:41;;;;;;;6.10;2.72;;;;;;;2.48;64.81;101011.27;1763258;80;21160;-59
2021/12/18 11:17:11;;;;;;;6.87;2.85;;;;;;;2.46;63.99;101010.48;1767722;80;21020;-58
2021/12/18 11:19:40;;;;;;;5.53;2.87;;;;;;;2.43;63.28;101003.64;1763410;80;21054;-58
2021/12/18 11:22:14;;;;;;;6.40;2.77;;;;;;;2.41;63.22;101007.59;1737482;80;21052;-58
2021/12/18 11:24:45;;;;;;;6.95;3.05;;;;;;;2.42;63.27;101011.02;1761804;80;20978;-58
2021/12/18 11:27:17;;;;;;;9.10;3.30;;;;;;;2.46;63.16;101001.40;1761625;80;21172;-58
2021/12/18 11:29:51;;;;;;;8.65;2.80;;;;;;;2.47;62.73;101005.23;1759179;80;21015;-58
2021/12/18 11:32:21;;;;;;;8.48;2.98;;;;;;;2.54;62.45;101010.60;1737568;80;21039;-59
2021/12/18 11:34:49;;;;;;;6.90;2.62;;;;;;;2.54;61.11;101007.13;1760562;80;21030;-58
2021/12/18 11:37:18;;;;;;;6.10;2.17;;;;;;;2.54;60.97;101004.53;1737121;80;21106;-58
2021/12/18 11:39:45;;;;;;;7.25;2.30;;;;;;;2.51;60.67;101000.78;1749881;80;21102;-58
2021/12/18 11:42:12;;;;;;;5.00;1.92;;;;;;;2.52;60.34;100997.25;1740750;80;21091;-58
2021/12/18 11:44:52;;;;;;;6.08;2.37;;;;;;;2.50;60.49;100999.06;1738747;82;21562;-60
2021/12/18 11:47:35;;;;;;;5.60;2.40;;;;;;;2.52;60.35;100984.27;1734947;81;21080;-58
2021/12/18 11:50:07;;;;;;;4.28;1.65;;;;;;;2.50;59.77;100984.32;1743297;80;21036;-58
2021/12/18 11:53:11;;;;;;;5.50;2.02;;;;;;;2.49;58.96;100981.34;1736228;80;21168;-58
2021/12/18 11:55:52;;;;;;;7.45;1.65;;;;;;;2.46;58.71;100981.91;1742810;80;21054;-59
2021/12/18 11:58:33;;;;;;;5.78;1.92;;;;;;;2.44;59.02;100990.19;1737092;81;21651;-57
2021/12/18 12:01:24;;;;;;;4.92;1.57;;;;;;;2.43;58.85;100982.02;1741625;80;21754;-58
2021/12/18 12:03:55;;;;;;;4.80;1.62;;;;;;;2.47;58.77;100977.09;1741178;80;21069;-60
2021/12/18 12:06:37;;;;;;;4.25;1.42;;;;;;;2.44;58.39;100978.50;1742130;80;21106;-57
2021/12/18 12:09:34;;;;;;;5.50;1.27;;;;;;;2.44;57.54;100983.70;1703685;82;21828;-58
2021/12/18 12:12:04;;;;;;;6.28;2.22;;;;;;;2.44;57.69;100986.30;1737162;80;21009;-57
2021/12/18 12:14:39;;;;;;;4.83;1.37;;;;;;;2.43;57.37;100988.52;1708704;82;21079;-58
2021/12/18 12:17:21;;;;;;;2.37;1.00;;;;;;;2.41;56.33;100984.67;1741632;81;21089;-59
2021/12/18 12:19:57;;;;;;;3.45;0.98;;;;;;;2.36;55.65;100977.50;1742284;81;21811;-59
2021/12/18 12:22:39;;;;;;;3.33;1.10;;;;;;;2.32;56.05;100974.17;1737086;81;21620;-58
2021/12/18 12:25:07;;;;;;;6.08;1.30;;;;;;;2.29;56.10;100983.37;1738108;81;21079;-58
2021/12/18 12:27:38;;;;;;;4.42;1.42;;;;;;;2.26;56.19;100981.34;1737720;82;21406;-58
2021/12/18 12:30:10;;;;;;;3.22;0.95;;;;;;;2.26;56.20;100974.38;1736070;80;21134;-58